Time;durP1;ratioP1;P1;durP2;ratioP2;P2;SDS_P1;SDS_P2;PMS_P1;PMS_P2;Temp;Humidity;BMP_temperature;BMP_pressure;BME280_temperature;BME280_humidity;BME280_pressure;Samples;Min_cycle;Max_cycle;Signal;HPM_P1;HPM_P2
2021/05/04 00:01:19;;;;;;;7.22;4.90;;;;;;;8.50;55.11;99500.69;2193609;40;20138;-79
2021/05/04 00:02:50;;;;;;;6.93;4.55;;;;;;;8.52;55.13;99498.72;2209600;40;20385;-79
2021/05/04 00:04:21;;;;;;;9.18;5.30;;;;;;;8.46;55.04;99493.97;2210466;40;20037;-77
2021/05/04 00:05:52;;;;;;;10.80;5.93;;;;;;;8.45;55.13;99489.63;2215578;40;20029;-76
2021/05/04 00:07:25;;;;;;;9.55;5.78;;;;;;;8.42;55.40;99493.41;2202423;40;20413;-78
2021/05/04 00:08:56;;;;;;;9.30;5.40;;;;;;;8.36;55.37;99487.81;2220339;40;20029;-79
2021/05/04 00:10:27;;;;;;;9.38;5.30;;;;;;;8.33;55.29;99472.13;2200685;40;20064;-78
2021/05/04 00:11:59;;;;;;;7.30;4.72;;;;;;;8.35;55.19;99480.81;2216241;40;20045;-79
2021/05/04 00:13:30;;;;;;;8.40;4.30;;;;;;;8.40;54.97;99475.91;2218954;40;20044;-79
2021/05/04 00:15:01;;;;;;;5.63;3.47;;;;;;;8.43;54.75;99470.28;2216662;40;20039;-80
2021/05/04 00:16:33;;;;;;;6.30;3.83;;;;;;;8.48;54.55;99469.88;2212264;40;20456;-80
2021/05/04 00:18:04;;;;;;;6.57;3.28;;;;;;;8.47;54.39;99461.03;2215859;40;20080;-79
2021/05/04 00:19:37;;;;;;;8.30;4.05;;;;;;;8.43;54.27;99462.28;2215315;40;20050;-79
2021/05/04 00:21:08;;;;;;;7.20;4.60;;;;;;;8.41;54.33;99462.44;2215523;40;20033;-79
2021/05/04 00:22:40;;;;;;;7.72;3.83;;;;;;;8.37;54.41;99457.53;2218382;40;20429;-79
2021/05/04 00:24:12;;;;;;;7.13;4.53;;;;;;;8.36;54.71;99454.03;2215223;40;20030;-76
2021/05/04 00:25:43;;;;;;;7.25;4.28;;;;;;;8.31;55.01;99452.81;2215631;40;20032;-78
2021/05/04 00:27:14;;;;;;;9.02;5.20;;;;;;;8.27;55.18;99445.09;2215225;40;20370;-78
2021/05/04 00:28:46;;;;;;;6.68;4.78;;;;;;;8.23;55.45;99443.69;2217094;40;20123;-79
2021/05/04 00:30:17;;;;;;;6.65;4.93;;;;;;;8.19;55.73;99444.13;2221116;40;20030;-79
2021/05/04 00:31:49;;;;;;;7.63;5.00;;;;;;;8.15;55.88;99440.91;2219029;40;20061;-78
2021/05/04 00:33:19;;;;;;;7.93;5.53;;;;;;;8.11;55.96;99440.38;2214885;40;20065;-79
2021/05/04 00:34:52;;;;;;;10.32;5.13;;;;;;;8.09;56.09;99433.50;2215453;40;20030;-79
2021/05/04 00:36:24;;;;;;;8.70;5.13;;;;;;;8.08;56.06;99437.16;2213889;40;20034;-78
2021/05/04 00:37:56;;;;;;;6.40;4.55;;;;;;;8.06;56.07;99431.13;2216729;40;20397;-76
2021/05/04 00:39:33;;;;;;;10.10;4.93;;;;;;;8.07;56.12;99436.31;2215503;40;20418;-79
2021/05/04 00:41:06;;;;;;;7.40;4.50;;;;;;;8.01;56.35;99434.22;2217549;40;20037;-79
2021/05/04 00:42:37;;;;;;;9.30;4.65;;;;;;;7.97;56.51;99435.50;2212181;40;20037;-79
2021/05/04 00:44:08;;;;;;;6.68;4.35;;;;;;;7.91;56.69;99428.94;2215872;40;20052;-78
2021/05/04 00:45:39;;;;;;;6.65;4.47;;;;;;;7.90;56.73;99431.72;2183841;40;20554;-76
2021/05/04 00:47:11;;;;;;;7.75;4.57;;;;;;;7.86;57.13;99430.34;2196540;40;20047;-78
2021/05/04 00:48:43;;;;;;;6.80;4.32;;;;;;;7.83;57.34;99427.94;2207656;40;20048;-76
2021/05/04 00:50:14;;;;;;;7.20;4.10;;;;;;;7.79;57.50;99435.38;2214347;40;20100;-76
2021/05/04 00:51:45;;;;;;;9.85;5.03;;;;;;;7.76;57.36;99427.66;2218578;40;20586;-79
2021/05/04 00:53:18;;;;;;;9.13;5.03;;;;;;;7.73;57.66;99433.28;2215483;40;20030;-75
2021/05/04 00:54:50;;;;;;;8.73;4.57;;;;;;;7.69;57.71;99427.41;2208722;40;20053;-75
2021/05/04 00:56:22;;;;;;;8.32;4.45;;;;;;;7.68;57.64;99414.25;2215359;40;20056;-76
2021/05/04 00:57:55;;;;;;;6.43;4.38;;;;;;;7.71;57.47;99424.59;2187322;40;20037;-77
2021/05/04 00:59:27;;;;;;;7.80;4.20;;;;;;;7.71;57.46;99416.63;2220601;40;20025;-77
2021/05/04 01:00:59;;;;;;;5.85;3.70;;;;;;;7.70;57.36;99417.59;2167356;40;20028;-77
2021/05/04 01:02:31;;;;;;;8.30;3.85;;;;;;;7.71;57.36;99419.28;2197070;40;20034;-76
2021/05/04 01:04:03;;;;;;;7.65;4.47;;;;;;;7.69;57.47;99405.28;2180323;40;20052;-76
2021/05/04 01:05:35;;;;;;;7.65;4.18;;;;;;;7.70;57.50;99407.78;2208050;40;20406;-76
2021/05/04 01:07:06;;;;;;;7.90;5.00;;;;;;;7.71;57.54;99400.66;2212123;40;20040;-76
2021/05/04 01:08:38;;;;;;;8.27;4.32;;;;;;;7.72;57.51;99405.00;2215178;40;20021;-75
2021/05/04 01:10:11;;;;;;;6.80;4.50;;;;;;;7.71;57.77;99398.00;2213526;40;20045;-76
2021/05/04 01:11:42;;;;;;;6.40;4.20;;;;;;;7.74;57.64;99408.38;2217223;40;20034;-76
2021/05/04 01:13:14;;;;;;;9.20;4.30;;;;;;;7.76;57.71;99395.75;2215376;40;20078;-77
2021/05/04 01:14:45;;;;;;;7.03;4.25;;;;;;;7.77;57.70;99386.78;2219429;40;20037;-75
2021/05/04 01:16:17;;;;;;;7.40;4.25;;;;;;;7.76;57.52;99385.09;2219840;40;20037;-76
2021/05/04 01:17:48;;;;;;;6.38;3.88;;;;;;;7.78;57.47;99383.13;2221285;40;20022;-77
2021/05/04 01:19:20;;;;;;;6.45;3.80;;;;;;;7.78;57.50;99380.47;2198793;40;20366;-76
2021/05/04 01:20:52;;;;;;;7.30;4.30;;;;;;;7.78;57.49;99380.47;2216756;40;20029;-76
2021/05/04 01:22:24;;;;;;;6.30;3.92;;;;;;;7.80;57.50;99370.53;2207095;40;20048;-76
2021/05/04 01:23:55;;;;;;;8.45;3.63;;;;;;;7.81;57.53;99372.22;2213061;40;20049;-76
2021/05/04 01:25:26;;;;;;;6.55;3.67;;;;;;;7.84;57.54;99361.25;2214662;40;20049;-77
2021/05/04 01:26:58;;;;;;;6.72;3.78;;;;;;;7.90;57.35;99370.50;2215718;40;20099;-77
2021/05/04 01:28:31;;;;;;;7.50;4.18;;;;;;;7.95;57.09;99363.75;2215627;40;20140;-76
2021/05/04 01:30:03;;;;;;;7.75;4.05;;;;;;;8.03;56.75;99367.53;2215785;40;20030;-76
2021/05/04 01:31:34;;;;;;;5.65;3.70;;;;;;;8.06;56.70;99359.25;2176527;40;20030;-77
2021/05/04 01:33:06;;;;;;;6.28;4.00;;;;;;;8.08;56.54;99354.63;2213613;40;20048;-76
2021/05/04 01:34:37;;;;;;;5.72;3.53;;;;;;;8.07;56.35;99352.94;2197148;40;20386;-76
2021/05/04 01:36:09;;;;;;;6.90;3.50;;;;;;;8.13;56.31;99352.34;2206214;40;20040;-76
2021/05/04 01:37:40;;;;;;;6.05;3.10;;;;;;;8.18;55.87;99350.09;2209452;40;20033;-76
2021/05/04 01:39:12;;;;;;;5.80;3.83;;;;;;;8.24;55.62;99346.03;2196142;40;20038;-76
2021/05/04 01:40:43;;;;;;;6.63;3.65;;;;;;;8.30;55.59;99349.94;2190262;40;20558;-77
2021/05/04 01:42:16;;;;;;;5.88;3.40;;;;;;;8.38;55.29;99339.38;2202858;40;20030;-77
2021/05/04 01:43:48;;;;;;;5.57;3.38;;;;;;;8.44;54.96;99336.09;2211611;40;20456;-76
2021/05/04 01:45:20;;;;;;;7.53;3.33;;;;;;;8.54;54.44;99330.78;2214677;40;20329;-78
2021/05/04 01:46:51;;;;;;;5.07;3.33;;;;;;;8.63;54.18;99324.53;2216607;40;20158;-77
2021/05/04 01:48:22;;;;;;;7.03;3.22;;;;;;;8.69;53.56;99323.94;2204099;40;20129;-77
2021/05/04 01:49:54;;;;;;;5.45;3.00;;;;;;;8.72;53.48;99320.13;2217620;40;20041;-76
2021/05/04 01:51:27;;;;;;;5.50;3.05;;;;;;;8.75;53.25;99317.16;2215531;40;20038;-76
2021/05/04 01:52:59;;;;;;;4.22;2.60;;;;;;;8.80;53.07;99309.53;2215914;40;20057;-78
2021/05/04 01:54:30;;;;;;;4.53;2.80;;;;;;;8.85;52.90;99309.94;2212286;40;20048;-77
2021/05/04 01:56:04;;;;;;;5.22;2.50;;;;;;;8.89;52.78;99297.97;2215021;40;20557;-78
2021/05/04 01:57:45;;;;;;;4.47;2.50;;;;;;;8.94;52.28;99307.34;2213482;40;20041;-77
2021/05/04 01:59:23;;;;;;;5.45;3.08;;;;;;;8.95;52.15;99301.03;2216763;40;20160;-77
2021/05/04 02:00:54;;;;;;;5.25;2.72;;;;;;;8.99;52.18;99307.72;2208752;40;20432;-77
2021/05/04 02:02:26;;;;;;;5.55;2.85;;;;;;;9.01;51.89;99297.75;2213038;40;20036;-77
2021/05/04 02:03:57;;;;;;;7.13;2.88;;;;;;;8.99;51.98;99308.56;2213821;40;20038;-77
2021/05/04 02:05:28;;;;;;;6.15;2.80;;;;;;;8.97;51.91;99307.06;2216533;40;20054;-77
2021/05/04 02:07:03;;;;;;;5.90;2.80;;;;;;;8.99;51.85;99307.72;2213722;40;20448;-77
2021/05/04 02:08:34;;;;;;;6.00;3.20;;;;;;;9.01;51.75;99303.94;2216965;40;20029;-77
2021/05/04 02:10:07;;;;;;;5.63;2.60;;;;;;;9.04;51.58;99295.59;2212271;40;20142;-77
2021/05/04 02:11:38;;;;;;;4.68;2.53;;;;;;;9.12;51.42;99297.50;2216387;40;20057;-77
2021/05/04 02:13:10;;;;;;;5.80;2.47;;;;;;;9.14;51.53;99292.88;2215419;40;20131;-78
2021/05/04 02:14:41;;;;;;;5.78;2.65;;;;;;;9.13;51.55;99299.19;2216401;40;20033;-77
2021/05/04 02:16:13;;;;;;;8.25;2.80;;;;;;;9.17;51.40;99292.53;2204292;40;20057;-77
2021/05/04 02:17:44;;;;;;;6.10;2.22;;;;;;;9.19;51.37;99282.56;2215367;40;20044;-78
2021/05/04 02:19:15;;;;;;;5.15;2.35;;;;;;;9.25;51.03;99285.63;2208866;40;20424;-77
2021/05/04 02:20:47;;;;;;;4.72;2.63;;;;;;;9.25;51.06;99280.28;2199103;40;20039;-77
2021/05/04 02:22:19;;;;;;;5.13;2.58;;;;;;;9.22;51.25;99281.41;2188332;40;20030;-77
2021/05/04 02:23:51;;;;;;;5.53;3.03;;;;;;;9.20;51.34;99280.75;2210836;40;20045;-77
2021/05/04 02:25:23;;;;;;;7.80;2.85;;;;;;;9.17;51.65;99279.22;2213169;40;20067;-77
2021/05/04 02:26:54;;;;;;;4.63;3.13;;;;;;;9.16;51.48;99274.03;2215985;40;20045;-77
2021/05/04 02:28:25;;;;;;;5.00;2.92;;;;;;;9.17;51.63;99273.88;2214774;40;20045;-78
2021/05/04 02:29:57;;;;;;;6.05;3.28;;;;;;;9.18;51.39;99266.72;2217313;40;20422;-77
2021/05/04 02:31:29;;;;;;;7.18;2.95;;;;;;;9.16;51.53;99272.19;2217900;40;20048;-77
2021/05/04 02:33:00;;;;;;;6.43;2.97;;;;;;;9.15;51.61;99264.38;2219896;40;20049;-80
2021/05/04 02:34:33;;;;;;;4.78;2.40;;;;;;;9.13;51.90;99259.19;2219442;40;20040;-76
2021/05/04 02:36:05;;;;;;;5.40;2.80;;;;;;;9.13;51.76;99261.88;2219644;40;20029;-79
2021/05/04 02:37:37;;;;;;;6.13;3.13;;;;;;;9.15;51.55;99257.22;2214714;40;20060;-78
2021/05/04 02:39:09;;;;;;;4.88;2.80;;;;;;;9.15;51.60;99254.56;2209543;40;20045;-77
2021/05/04 02:40:41;;;;;;;4.75;2.58;;;;;;;9.18;51.56;99256.06;2215905;40;20250;-77
2021/05/04 02:42:12;;;;;;;6.13;3.17;;;;;;;9.23;51.44;99244.94;2216707;40;20044;-77
2021/05/04 02:43:44;;;;;;;6.68;3.22;;;;;;;9.29;51.11;99244.28;2214914;40;20037;-77
2021/05/04 02:45:16;;;;;;;5.93;3.17;;;;;;;9.30;51.06;99244.16;2217099;40;20112;-80
2021/05/04 02:46:47;;;;;;;6.38;2.60;;;;;;;9.36;50.47;99237.34;2207279;40;20062;-78
2021/05/04 02:48:18;;;;;;;4.78;2.70;;;;;;;9.41;50.54;99226.19;2216206;40;20037;-78
2021/05/04 02:49:50;;;;;;;5.63;2.65;;;;;;;9.42;50.42;99233.22;2218657;40;20030;-79
2021/05/04 02:51:21;;;;;;;5.22;2.03;;;;;;;9.44;50.45;99221.41;2220192;40;20036;-78
2021/05/04 02:52:53;;;;;;;4.82;2.65;;;;;;;9.54;49.90;99223.94;2213191;40;20629;-78
2021/05/04 02:54:24;;;;;;;5.65;2.85;;;;;;;9.60;49.70;99219.81;2216761;40;20042;-81
2021/05/04 02:55:56;;;;;;;5.05;2.33;;;;;;;9.61;49.44;99213.50;2218629;40;20113;-80
2021/05/04 02:57:27;;;;;;;4.53;2.28;;;;;;;9.62;49.34;99207.16;2216117;40;20550;-80
2021/05/04 02:58:58;;;;;;;4.22;2.35;;;;;;;9.63;49.63;99206.16;2218056;40;20040;-80
2021/05/04 03:00:30;;;;;;;4.55;2.40;;;;;;;9.58;49.63;99203.97;2216283;40;20072;-80
2021/05/04 03:02:01;;;;;;;5.90;2.97;;;;;;;9.59;49.63;99202.94;2218066;40;20030;-78
2021/05/04 03:03:34;;;;;;;6.28;2.83;;;;;;;9.62;49.40;99209.81;2201424;40;20153;-77
2021/05/04 03:05:06;;;;;;;4.40;2.22;;;;;;;9.59;49.47;99204.78;2217044;40;20081;-77
2021/05/04 03:06:38;;;;;;;5.05;2.85;;;;;;;9.60;49.54;99203.81;2216154;40;20119;-78
2021/05/04 03:08:10;;;;;;;5.10;2.35;;;;;;;9.60;49.38;99193.13;2217475;40;20065;-79
2021/05/04 03:09:42;;;;;;;4.82;2.28;;;;;;;9.59;49.45;99191.47;2213015;40;20044;-78
2021/05/04 03:11:14;;;;;;;6.18;2.50;;;;;;;9.57;49.58;99190.78;2218846;40;20022;-81
2021/05/04 03:12:45;;;;;;;5.30;2.65;;;;;;;9.57;49.64;99188.09;2216746;40;20212;-80
2021/05/04 03:14:16;;;;;;;5.60;2.10;;;;;;;9.57;49.59;99188.09;2218222;40;20034;-78
2021/05/04 03:15:48;;;;;;;4.82;2.63;;;;;;;9.57;49.72;99188.09;2215518;40;20549;-77
2021/05/04 03:17:20;;;;;;;4.70;3.10;;;;;;;9.56;49.59;99181.94;2217053;40;20041;-77
2021/05/04 03:18:51;;;;;;;5.65;2.60;;;;;;;9.57;49.71;99178.28;2215095;40;20036;-77
2021/05/04 03:20:22;;;;;;;4.75;2.63;;;;;;;9.56;49.56;99181.09;2216485;40;20057;-78
2021/05/04 03:21:54;;;;;;;5.35;2.80;;;;;;;9.52;49.89;99170.75;2214764;40;20072;-78
2021/05/04 03:23:26;;;;;;;5.10;2.40;;;;;;;9.53;49.83;99171.59;2216561;40;20735;-77
2021/05/04 03:24:58;;;;;;;4.32;2.60;;;;;;;9.54;49.80;99167.09;2216170;40;20050;-77
2021/05/04 03:26:30;;;;;;;5.43;2.42;;;;;;;9.53;49.98;99166.25;2218055;40;20057;-79
2021/05/04 03:28:02;;;;;;;6.07;2.33;;;;;;;9.59;49.86;99164.78;2216733;40;20077;-78
2021/05/04 03:29:34;;;;;;;4.53;2.63;;;;;;;9.58;49.76;99149.75;2217652;40;20026;-79
2021/05/04 03:31:05;;;;;;;6.82;2.67;;;;;;;9.59;49.79;99154.09;2217348;40;20064;-78
2021/05/04 03:32:40;;;;;;;5.25;2.97;;;;;;;9.59;49.78;99141.56;2217119;40;20369;-78
2021/05/04 03:34:12;;;;;;;4.43;2.65;;;;;;;9.58;49.66;99147.09;2178645;40;20058;-78
2021/05/04 03:35:44;;;;;;;4.03;2.30;;;;;;;9.60;49.84;99142.44;2207957;40;20068;-78
2021/05/04 03:37:15;;;;;;;4.85;2.38;;;;;;;9.58;49.68;99131.06;2212477;40;20049;-78
2021/05/04 03:38:47;;;;;;;7.95;2.65;;;;;;;9.60;49.79;99129.09;2217674;40;20032;-78
2021/05/04 03:40:19;;;;;;;5.60;2.80;;;;;;;9.61;49.74;99136.09;2215834;40;20053;-78
2021/05/04 03:41:50;;;;;;;6.18;2.67;;;;;;;9.61;49.60;99125.44;2217836;40;20392;-78
2021/05/04 03:43:21;;;;;;;6.75;2.83;;;;;;;9.65;49.32;99126.75;2216413;40;20041;-80
2021/05/04 03:44:53;;;;;;;7.38;2.63;;;;;;;9.66;49.35;99128.44;2217774;40;20438;-78
2021/05/04 03:46:24;;;;;;;4.97;3.03;;;;;;;9.68;49.21;99129.13;2217260;40;20421;-79
2021/05/04 03:47:55;;;;;;;5.35;2.38;;;;;;;9.72;49.23;99117.13;2219037;40;20041;-77
2021/05/04 03:49:27;;;;;;;15.20;2.92;;;;;;;9.75;48.87;99122.13;2189529;40;20049;-78
2021/05/04 03:50:58;;;;;;;5.53;2.70;;;;;;;9.79;48.77;99118.16;2216165;40;20034;-77
2021/05/04 03:52:29;;;;;;;5.90;2.60;;;;;;;9.83;48.66;99114.13;2211672;40;20408;-78
2021/05/04 03:54:02;;;;;;;4.82;2.10;;;;;;;9.85;48.81;99114.00;2219807;40;20037;-78
2021/05/04 03:55:34;;;;;;;4.18;2.20;;;;;;;9.88;48.68;99110.16;2214364;40;20053;-78
2021/05/04 03:57:06;;;;;;;5.88;2.63;;;;;;;9.86;48.54;99109.47;2215350;40;20068;-78
2021/05/04 03:58:37;;;;;;;4.40;2.30;;;;;;;9.88;48.49;99115.50;2215529;40;20056;-77
2021/05/04 04:00:10;;;;;;;6.70;2.50;;;;;;;9.91;48.30;99115.19;2213174;40;20399;-77
2021/05/04 04:01:42;;;;;;;4.75;2.50;;;;;;;9.94;48.23;99104.16;2214149;40;20042;-77
2021/05/04 04:03:13;;;;;;;4.90;2.50;;;;;;;9.96;48.27;99091.47;2208902;40;20037;-77
2021/05/04 04:04:44;;;;;;;4.80;2.22;;;;;;;9.99;47.98;99101.84;2214720;40;20326;-77
2021/05/04 04:06:16;;;;;;;4.90;2.33;;;;;;;10.04;47.74;99104.84;2213205;40;20033;-77
2021/05/04 04:07:48;;;;;;;5.38;2.20;;;;;;;10.08;47.72;99100.00;2215136;40;20103;-77
2021/05/04 04:09:20;;;;;;;4.05;2.20;;;;;;;10.10;47.74;99096.19;2213705;40;20421;-77
2021/05/04 04:10:51;;;;;;;5.22;2.22;;;;;;;10.13;47.63;99097.69;2215033;40;20044;-77
2021/05/04 04:12:24;;;;;;;5.07;2.33;;;;;;;10.15;47.49;99104.53;2211030;40;20099;-77
2021/05/04 04:13:55;;;;;;;4.43;2.00;;;;;;;10.19;47.50;99097.03;2215110;40;20026;-77
2021/05/04 04:15:26;;;;;;;5.00;2.33;;;;;;;10.23;47.30;99089.50;2206479;40;20076;-78
2021/05/04 04:16:57;;;;;;;4.22;2.33;;;;;;;10.24;47.05;99088.50;2211668;40;20049;-77
2021/05/04 04:18:29;;;;;;;3.67;2.03;;;;;;;10.26;47.08;99083.84;2213526;40;20220;-77
2021/05/04 04:20:00;;;;;;;3.60;1.95;;;;;;;10.29;47.00;99080.84;2214484;40;20469;-77
2021/05/04 04:21:31;;;;;;;4.95;2.22;;;;;;;10.32;46.86;99085.84;2210346;40;20199;-76
2021/05/04 04:23:03;;;;;;;4.38;2.40;;;;;;;10.34;46.92;99078.50;2214962;40;20442;-77
2021/05/04 04:24:35;;;;;;;4.13;2.05;;;;;;;10.33;47.11;99076.81;2213459;40;20045;-78
2021/05/04 04:26:06;;;;;;;4.43;2.17;;;;;;;10.31;47.09;99078.81;2218500;40;20037;-79
2021/05/04 04:27:38;;;;;;;4.25;2.08;;;;;;;10.32;46.88;99080.50;2218591;40;20046;-78
2021/05/04 04:29:09;;;;;;;3.63;1.98;;;;;;;10.36;46.91;99065.81;2214847;40;20033;-79
2021/05/04 04:30:40;;;;;;;5.75;3.05;;;;;;;10.41;46.71;99073.38;2213223;40;20058;-78
2021/05/04 04:32:12;;;;;;;3.60;2.13;;;;;;;10.41;46.69;99052.81;2214989;40;20026;-79
2021/05/04 04:33:43;;;;;;;4.47;2.17;;;;;;;10.42;46.52;99061.69;2215096;40;20131;-79
2021/05/04 04:35:15;;;;;;;3.92;2.00;;;;;;;10.47;46.52;99063.84;2217361;40;20046;-79
2021/05/04 04:36:47;;;;;;;7.88;2.30;;;;;;;10.50;46.16;99066.16;2214984;40;20060;-80
2021/05/04 04:38:19;;;;;;;6.53;1.90;;;;;;;10.52;46.30;99067.69;2217743;40;20014;-79
2021/05/04 04:39:51;;;;;;;4.50;1.98;;;;;;;10.53;46.32;99058.63;2212366;40;20029;-76
2021/05/04 04:41:23;;;;;;;4.47;2.30;;;;;;;10.58;46.20;99055.50;2222073;40;20091;-77
2021/05/04 04:42:54;;;;;;;4.15;1.95;;;;;;;10.60;46.05;99056.13;2184547;40;20502;-77
2021/05/04 04:44:26;;;;;;;9.90;2.38;;;;;;;10.60;45.90;99053.47;2214499;40;20037;-77
2021/05/04 04:45:57;;;;;;;4.97;2.17;;;;;;;10.65;45.94;99050.28;2211072;39;20044;-76
2021/05/04 04:47:28;;;;;;;4.20;2.20;;;;;;;10.66;45.82;99052.81;2214323;40;20065;-77
2021/05/04 04:49:05;;;;;;;7.50;2.10;;;;;;;10.72;45.80;99048.63;2211825;40;20042;-78
2021/05/04 04:50:38;;;;;;;5.40;2.10;;;;;;;10.72;45.79;99044.09;2213912;40;20139;-77
2021/05/04 04:52:10;;;;;;;4.93;1.88;;;;;;;10.74;45.65;99052.78;2215470;40;20030;-77
2021/05/04 04:53:41;;;;;;;4.93;2.05;;;;;;;10.77;45.49;99047.06;2213345;40;20050;-76
2021/05/04 04:55:14;;;;;;;5.60;1.92;;;;;;;10.84;45.41;99046.41;2212166;40;20045;-76
2021/05/04 04:56:45;;;;;;;4.63;2.10;;;;;;;10.84;45.48;99043.75;2212525;40;20311;-77
2021/05/04 04:58:16;;;;;;;4.43;2.17;;;;;;;10.87;45.36;99040.69;2209179;40;20449;-77
2021/05/04 04:59:49;;;;;;;4.07;2.28;;;;;;;10.86;45.37;99031.84;2216097;40;20037;-76
2021/05/04 05:01:20;;;;;;;5.80;2.00;;;;;;;10.91;45.28;99028.66;2207058;40;20061;-77
2021/05/04 05:02:51;;;;;;;5.85;1.95;;;;;;;10.92;45.33;99038.38;2210881;40;20042;-77
2021/05/04 05:04:24;;;;;;;3.67;1.92;;;;;;;10.93;45.34;99034.69;2208995;40;20053;-77
2021/05/04 05:05:55;;;;;;;4.65;2.28;;;;;;;10.92;45.22;99025.81;2208548;40;20128;-77
2021/05/04 05:07:28;;;;;;;5.35;1.65;;;;;;;10.95;45.28;99029.16;2209209;40;20046;-77
2021/05/04 05:09:01;;;;;;;3.60;1.80;;;;;;;10.96;45.27;99028.16;2212482;40;20038;-78
2021/05/04 05:10:32;;;;;;;3.95;1.90;;;;;;;10.98;45.22;99031.50;2209386;40;20069;-78
2021/05/04 05:12:05;;;;;;;6.97;2.47;;;;;;;11.00;45.00;99030.31;2210740;40;20037;-77
2021/05/04 05:13:37;;;;;;;6.32;2.38;;;;;;;11.03;45.20;99031.81;2196798;40;20042;-78
2021/05/04 05:15:09;;;;;;;4.63;2.15;;;;;;;11.05;45.13;99024.44;2192963;40;20066;-77
2021/05/04 05:16:41;;;;;;;3.90;1.83;;;;;;;11.06;45.09;99024.25;2199712;40;20050;-77
2021/05/04 05:18:11;;;;;;;7.22;1.90;;;;;;;11.11;44.93;99029.09;2212212;40;20041;-78
2021/05/04 05:19:43;;;;;;;5.60;2.42;;;;;;;11.10;44.98;99019.41;2194753;40;20042;-77
2021/05/04 05:21:16;;;;;;;5.22;2.10;;;;;;;11.13;44.93;99026.25;2210083;40;20046;-78
2021/05/04 05:22:47;;;;;;;4.15;2.20;;;;;;;11.14;44.89;99028.75;2210145;40;20038;-78
2021/05/04 05:24:19;;;;;;;5.88;2.50;;;;;;;11.17;44.90;99024.88;2213339;40;20302;-80
2021/05/04 05:25:51;;;;;;;6.07;2.28;;;;;;;11.21;44.81;99020.88;2213446;40;20049;-79
2021/05/04 05:27:22;;;;;;;3.97;1.83;;;;;;;11.21;44.89;99019.03;2211520;40;20535;-78
2021/05/04 05:28:54;;;;;;;4.13;2.00;;;;;;;11.22;44.82;99012.66;2211238;40;20097;-79
2021/05/04 05:30:25;;;;;;;4.13;1.98;;;;;;;11.23;44.78;99018.88;2209212;40;20712;-77
2021/05/04 05:31:57;;;;;;;4.45;1.90;;;;;;;11.27;44.68;99011.31;2211568;40;20050;-77
2021/05/04 05:33:28;;;;;;;5.47;1.95;;;;;;;11.27;44.60;99012.16;2209719;40;20123;-78
2021/05/04 05:35:00;;;;;;;4.93;2.17;;;;;;;11.28;44.75;99011.13;2216091;40;20484;-78
2021/05/04 05:36:32;;;;;;;4.13;2.00;;;;;;;11.31;44.83;99008.13;2214745;40;20045;-78
2021/05/04 05:38:04;;;;;;;6.30;2.15;;;;;;;11.33;44.67;99000.75;2212110;40;20084;-78
2021/05/04 05:39:42;;;;;;;4.53;2.10;;;;;;;11.34;44.60;98998.91;2210076;40;20624;-78
2021/05/04 05:41:14;;;;;;;4.28;1.95;;;;;;;11.38;44.33;98993.03;2213701;40;20034;-78
2021/05/04 05:42:45;;;;;;;5.00;2.13;;;;;;;11.39;44.32;98997.38;2177683;40;20138;-78
2021/05/04 05:44:16;;;;;;;5.13;2.33;;;;;;;11.42;44.32;98990.81;2216697;40;20049;-79
2021/05/04 05:45:49;;;;;;;7.70;2.53;;;;;;;11.47;44.32;98995.66;2203603;40;20041;-78
2021/05/04 05:47:21;;;;;;;4.72;2.00;;;;;;;11.48;44.21;98991.97;2211433;40;20030;-78
2021/05/04 05:48:53;;;;;;;4.80;1.95;;;;;;;11.55;44.00;98985.75;2209501;40;20642;-78
2021/05/04 05:50:25;;;;;;;8.27;2.42;;;;;;;11.58;44.08;98989.06;2210990;40;20101;-79
2021/05/04 05:51:56;;;;;;;4.43;2.15;;;;;;;11.58;44.05;98979.19;2216812;40;20138;-79
2021/05/04 05:53:27;;;;;;;4.82;2.10;;;;;;;11.60;44.01;98982.53;2218548;40;20037;-77
2021/05/04 05:54:59;;;;;;;5.00;2.25;;;;;;;11.66;44.09;98976.47;2216911;40;20100;-78
2021/05/04 05:56:31;;;;;;;5.82;1.85;;;;;;;11.72;43.79;98974.91;2219346;40;20061;-78
2021/05/04 05:58:02;;;;;;;4.85;2.25;;;;;;;11.71;43.71;98981.28;2216712;40;20049;-79
2021/05/04 05:59:33;;;;;;;5.43;2.35;;;;;;;11.75;43.79;98976.41;2217065;40;20033;-78
2021/05/04 06:01:04;;;;;;;6.47;2.38;;;;;;;11.82;43.39;98977.34;2216662;40;20409;-78
2021/05/04 06:02:35;;;;;;;6.07;2.40;;;;;;;11.84;43.64;98970.81;2218055;40;20045;-78
2021/05/04 06:04:07;;;;;;;5.65;1.90;;;;;;;11.89;43.44;98966.75;2216824;40;20061;-78
2021/05/04 06:05:38;;;;;;;5.85;2.78;;;;;;;11.91;43.29;98960.19;2216974;40;20025;-78
2021/05/04 06:07:09;;;;;;;4.32;1.90;;;;;;;12.00;43.07;98964.50;2216213;40;20072;-77
2021/05/04 06:08:40;;;;;;;4.63;2.17;;;;;;;12.05;43.08;98963.97;2223874;40;20045;-78
2021/05/04 06:10:12;;;;;;;5.55;1.90;;;;;;;12.09;42.90;98951.88;2216085;40;20065;-78
2021/05/04 06:11:44;;;;;;;4.10;1.77;;;;;;;12.11;42.94;98960.59;2217413;40;20049;-78
2021/05/04 06:13:15;;;;;;;3.88;1.92;;;;;;;12.15;42.97;98958.38;2216296;39;20033;-78
2021/05/04 06:14:46;;;;;;;4.05;1.88;;;;;;;12.20;42.83;98953.28;2217089;40;20036;-78
2021/05/04 06:16:18;;;;;;;5.95;2.13;;;;;;;12.23;43.01;98958.28;2218519;40;20102;-78
2021/05/04 06:17:49;;;;;;;4.30;2.17;;;;;;;12.27;42.61;98959.59;2216955;40;20142;-77
2021/05/04 06:19:20;;;;;;;4.07;1.95;;;;;;;12.32;42.58;98954.50;2216002;40;20054;-79
2021/05/04 06:20:51;;;;;;;3.30;1.70;;;;;;;12.38;42.77;98965.50;2219206;40;20628;-79
2021/05/04 06:22:22;;;;;;;11.27;2.35;;;;;;;12.41;42.44;98946.38;2222029;40;20033;-76
2021/05/04 06:23:53;;;;;;;3.95;1.75;;;;;;;12.42;42.42;98953.41;2214947;40;20156;-77
2021/05/04 06:25:25;;;;;;;7.07;2.08;;;;;;;12.43;42.44;98952.41;2211232;40;20076;-79
2021/05/04 06:26:58;;;;;;;6.32;1.73;;;;;;;12.48;42.35;98941.94;2217662;40;20042;-81
2021/05/04 06:28:29;;;;;;;5.82;1.73;;;;;;;12.50;42.25;98944.47;2215808;40;20364;-78
2021/05/04 06:30:00;;;;;;;5.30;2.00;;;;;;;12.52;42.16;98939.72;2218083;40;20037;-79
2021/05/04 06:31:32;;;;;;;4.40;1.63;;;;;;;12.55;42.20;98945.56;2216260;40;20048;-79
2021/05/04 06:33:04;;;;;;;5.80;1.90;;;;;;;12.56;42.29;98939.19;2217454;40;20572;-78
2021/05/04 06:34:37;;;;;;;7.13;2.75;;;;;;;12.63;42.04;98940.13;2216533;40;20049;-79
2021/05/04 06:36:08;;;;;;;4.40;2.03;;;;;;;12.65;42.15;98939.94;2213443;40;20083;-77
2021/05/04 06:37:40;;;;;;;3.72;1.50;;;;;;;12.72;41.97;98938.16;2213597;40;20032;-78
2021/05/04 06:39:11;;;;;;;5.63;2.25;;;;;;;12.75;41.91;98942.34;2223376;40;20037;-77
2021/05/04 06:40:45;;;;;;;4.57;2.00;;;;;;;12.74;42.17;98936.13;2220040;40;20041;-78
2021/05/04 06:42:17;;;;;;;5.72;2.55;;;;;;;12.79;41.88;98932.88;2215846;40;20034;-78
2021/05/04 06:43:50;;;;;;;6.20;2.03;;;;;;;12.79;41.94;98932.88;2217327;40;20736;-77
2021/05/04 06:45:22;;;;;;;4.03;1.90;;;;;;;12.85;41.91;98948.22;2204801;40;20045;-77
2021/05/04 06:46:53;;;;;;;7.25;1.88;;;;;;;12.88;41.92;98929.09;2191452;40;20094;-78
2021/05/04 06:48:24;;;;;;;4.80;2.20;;;;;;;12.92;41.85;98932.22;2212215;40;20151;-79
2021/05/04 06:49:56;;;;;;;4.78;2.10;;;;;;;12.92;41.81;98932.22;2217013;40;20037;-77
2021/05/04 06:51:27;;;;;;;5.10;1.90;;;;;;;12.92;42.03;98930.38;2187513;40;22819;-78
2021/05/04 06:52:59;;;;;;;5.25;2.42;;;;;;;12.95;41.84;98935.34;2206762;40;20109;-78
2021/05/04 06:54:30;;;;;;;5.20;2.10;;;;;;;12.99;41.81;98935.00;2210231;40;20119;-78
2021/05/04 06:56:02;;;;;;;6.20;2.10;;;;;;;13.05;42.01;98936.91;2217400;40;20515;-79
2021/05/04 06:57:34;;;;;;;6.53;2.28;;;;;;;13.08;41.69;98932.00;2214227;40;24712;-78
2021/05/04 06:59:06;;;;;;;6.18;1.95;;;;;;;13.18;41.64;98931.72;2215828;40;20041;-77
2021/05/04 07:00:37;;;;;;;4.28;1.95;;;;;;;13.21;41.65;98936.72;2217797;40;20037;-78
2021/05/04 07:02:08;;;;;;;4.40;2.13;;;;;;;13.20;41.78;98924.31;2216955;40;20029;-79
2021/05/04 07:03:40;;;;;;;5.68;2.15;;;;;;;13.19;41.98;98914.59;2216577;40;20048;-79
2021/05/04 07:05:11;;;;;;;8.05;2.25;;;;;;;13.23;41.76;98923.91;2218008;40;20033;-78
2021/05/04 07:06:43;;;;;;;8.70;2.38;;;;;;;13.22;41.81;98916.91;2216220;40;20061;-78
2021/05/04 07:08:16;;;;;;;4.50;2.10;;;;;;;13.30;41.53;98913.25;2215294;40;20279;-77
2021/05/04 07:09:47;;;;;;;9.18;3.58;;;;;;;13.38;41.83;98910.44;2214912;40;20041;-80
2021/05/04 07:11:18;;;;;;;5.18;1.83;;;;;;;13.41;41.57;98909.28;2216518;40;20038;-78
2021/05/04 07:12:51;;;;;;;3.67;1.85;;;;;;;13.48;41.71;98922.75;2214172;40;20515;-79
2021/05/04 07:14:22;;;;;;;7.15;1.70;;;;;;;13.53;41.54;98921.16;2215338;40;20038;-79
2021/05/04 07:15:53;;;;;;;5.50;2.10;;;;;;;13.58;41.56;98904.47;2214118;40;20107;-78